Time;durP1;ratioP1;P1;durP2;ratioP2;P2;SDS_P1;SDS_P2;PMS_P1;PMS_P2;Temp;Humidity;BMP_temperature;BMP_pressure;BME280_temperature;BME280_humidity;BME280_pressure;Samples;Min_cycle;Max_cycle;Signal;HPM_P1;HPM_P2
2020/12/22 00:00:29;;;;;;;1.30;0.80;;;12.40;99.90;;;;;;2121948;28;20020;-80
2020/12/22 00:01:30;;;;;;;0.98;0.70;;;12.40;99.90;;;;;;2112545;28;20051;-81
2020/12/22 00:02:30;;;;;;;0.77;0.77;;;12.40;99.90;;;;;;2112825;28;20098;-80
2020/12/22 00:03:31;;;;;;;1.35;0.80;;;12.40;99.90;;;;;;2121443;28;20019;-79
2020/12/22 00:04:32;;;;;;;0.77;0.77;;;12.40;99.90;;;;;;2121764;28;20027;-78
2020/12/22 00:05:32;;;;;;;0.70;0.65;;;12.40;99.90;;;;;;2112509;28;20112;-77
2020/12/22 00:06:33;;;;;;;2.25;1.02;;;12.40;99.90;;;;;;2112708;28;20445;-79
2020/12/22 00:07:33;;;;;;;4.65;0.60;;;12.40;99.90;;;;;;2112666;28;20024;-81
2020/12/22 00:08:34;;;;;;;1.77;0.80;;;12.40;99.90;;;;;;2104723;28;20115;-77
2020/12/22 00:09:34;;;;;;;0.80;0.80;;;12.50;99.90;;;;;;2112607;28;20380;-78
2020/12/22 00:10:35;;;;;;;0.70;0.70;;;12.50;99.90;;;;;;2121619;28;20015;-81
2020/12/22 00:11:35;;;;;;;0.82;0.77;;;12.50;99.90;;;;;;2121656;28;20360;-80
2020/12/22 00:12:38;;;;;;;1.95;0.70;;;12.50;99.90;;;;;;2121846;28;20091;-78
2020/12/22 00:13:39;;;;;;;0.77;0.63;;;12.50;99.90;;;;;;2122095;28;20069;-78
2020/12/22 00:14:39;;;;;;;2.40;0.85;;;12.50;99.90;;;;;;2121794;28;20073;-79
2020/12/22 00:15:40;;;;;;;3.45;1.38;;;12.50;99.90;;;;;;2121700;28;20045;-80
2020/12/22 00:16:41;;;;;;;1.75;0.80;;;12.50;99.90;;;;;;2121413;28;20493;-79
2020/12/22 00:17:44;;;;;;;2.28;0.85;;;12.50;99.90;;;;;;2121752;28;20016;-80
2020/12/22 00:18:44;;;;;;;0.68;0.68;;;12.50;99.90;;;;;;2112585;28;20716;-79
2020/12/22 00:19:45;;;;;;;1.25;0.63;;;12.60;99.90;;;;;;2104324;28;20106;-80
2020/12/22 00:20:45;;;;;;;0.73;0.73;;;12.60;99.90;;;;;;2112621;28;20103;-77
2020/12/22 00:21:46;;;;;;;1.92;0.68;;;12.60;99.90;;;;;;2121156;28;20034;-78
2020/12/22 00:22:51;;;;;;;1.27;0.88;;;12.60;99.90;;;;;;2112587;28;20031;-79
2020/12/22 00:23:51;;;;;;;1.02;0.73;;;12.60;99.90;;;;;;2113265;28;20026;-77
2020/12/22 00:24:52;;;;;;;0.57;0.57;;;12.60;99.90;;;;;;2112483;28;20038;-75
2020/12/22 00:25:52;;;;;;;1.05;0.60;;;12.70;99.90;;;;;;2112900;28;20016;-80
2020/12/22 00:26:53;;;;;;;0.60;0.60;;;12.70;99.90;;;;;;2112533;28;20016;-78
2020/12/22 00:27:54;;;;;;;0.75;0.63;;;12.70;99.90;;;;;;2112411;28;20591;-77
2020/12/22 00:28:54;;;;;;;0.95;0.80;;;12.70;99.90;;;;;;2121564;28;20019;-77
2020/12/22 00:29:55;;;;;;;1.10;0.70;;;12.70;99.90;;;;;;2112707;28;20123;-78
2020/12/22 00:30:55;;;;;;;1.80;0.70;;;12.70;99.90;;;;;;2112672;28;20420;-78
2020/12/22 00:32:00;;;;;;;1.33;0.70;;;12.70;99.90;;;;;;2112281;28;20020;-79
2020/12/22 00:33:01;;;;;;;1.05;0.70;;;12.70;99.90;;;;;;2113392;28;20424;-80
2020/12/22 00:34:02;;;;;;;0.85;0.50;;;12.70;99.90;;;;;;2121502;28;20031;-79
2020/12/22 00:35:04;;;;;;;1.58;0.77;;;12.70;99.90;;;;;;2112560;28;20062;-79
2020/12/22 00:36:08;;;;;;;0.75;0.68;;;12.80;99.90;;;;;;2104271;28;20415;-80
2020/12/22 00:37:09;;;;;;;1.38;0.80;;;12.70;99.90;;;;;;2104912;28;20028;-77
2020/12/22 00:38:09;;;;;;;1.08;0.77;;;12.70;99.90;;;;;;2114325;28;20028;-77
2020/12/22 00:39:10;;;;;;;1.27;0.60;;;12.80;99.90;;;;;;2123309;27;20027;-81
2020/12/22 00:40:11;;;;;;;1.13;0.60;;;12.80;99.90;;;;;;2113682;28;20059;-80
2020/12/22 00:41:15;;;;;;;1.58;0.90;;;12.80;99.90;;;;;;2114238;28;20020;-79
2020/12/22 00:42:15;;;;;;;2.30;0.70;;;12.80;99.90;;;;;;2113840;28;20568;-82
2020/12/22 00:43:16;;;;;;;0.50;0.50;;;12.80;99.90;;;;;;2114268;28;20133;-79
2020/12/22 00:44:16;;;;;;;1.63;0.60;;;12.80;99.90;;;;;;2105705;28;20028;-79
2020/12/22 00:45:18;;;;;;;0.60;0.50;;;12.80;99.90;;;;;;2105629;28;20016;-79
2020/12/22 00:46:19;;;;;;;0.60;0.60;;;12.90;99.90;;;;;;2113923;28;20036;-79
2020/12/22 00:47:20;;;;;;;0.50;0.43;;;12.80;99.90;;;;;;2114230;28;20451;-77
2020/12/22 00:48:21;;;;;;;1.70;0.60;;;12.90;99.90;;;;;;2123355;27;20064;-80
2020/12/22 00:49:21;;;;;;;1.15;0.45;;;12.90;99.90;;;;;;2123410;27;20615;-79
2020/12/22 00:50:22;;;;;;;0.85;0.60;;;12.90;99.90;;;;;;2113992;28;20389;-77
2020/12/22 00:51:24;;;;;;;1.20;0.45;;;12.90;99.90;;;;;;2113523;28;20129;-79
2020/12/22 00:52:24;;;;;;;1.40;0.60;;;12.90;99.90;;;;;;2123382;27;20064;-77
2020/12/22 00:53:25;;;;;;;2.55;0.50;;;12.90;99.90;;;;;;2123338;27;20523;-79
2020/12/22 00:54:26;;;;;;;0.52;0.52;;;12.90;99.90;;;;;;2114233;28;20076;-80
2020/12/22 00:55:26;;;;;;;0.55;0.50;;;12.90;99.90;;;;;;2105789;28;20043;-79
2020/12/22 00:56:27;;;;;;;0.43;0.40;;;12.90;99.90;;;;;;2114160;28;20077;-79
2020/12/22 00:57:27;;;;;;;0.52;0.52;;;13.00;99.90;;;;;;2123028;27;20034;-77
2020/12/22 00:58:28;;;;;;;0.80;0.47;;;13.00;99.90;;;;;;2123318;27;20042;-78
2020/12/22 00:59:29;;;;;;;0.90;0.70;;;13.00;99.90;;;;;;2123024;27;20058;-77
2020/12/22 01:00:29;;;;;;;0.88;0.63;;;13.00;99.90;;;;;;2123125;27;20019;-78
2020/12/22 01:01:30;;;;;;;2.03;0.60;;;13.00;99.90;;;;;;2113737;28;20020;-79
2020/12/22 01:02:31;;;;;;;1.02;0.75;;;13.00;99.90;;;;;;2105609;28;20503;-77
2020/12/22 01:03:32;;;;;;;0.85;0.50;;;13.00;99.90;;;;;;2105566;28;20016;-79
2020/12/22 01:04:33;;;;;;;0.47;0.47;;;13.00;99.90;;;;;;2113993;28;20049;-78
2020/12/22 01:05:33;;;;;;;2.13;0.73;;;13.00;99.90;;;;;;2114039;28;20015;-79
2020/12/22 01:06:40;;;;;;;1.85;0.50;;;13.00;99.90;;;;;;2114031;28;20024;-77
2020/12/22 01:07:41;;;;;;;0.82;0.80;;;13.10;99.90;;;;;;2123203;27;20047;-78
2020/12/22 01:08:42;;;;;;;7.05;1.02;;;13.10;99.90;;;;;;2122908;27;20019;-79
2020/12/22 01:09:44;;;;;;;1.75;0.60;;;13.10;99.90;;;;;;2123135;27;20020;-79
2020/12/22 01:10:45;;;;;;;2.28;0.65;;;13.10;99.90;;;;;;2123009;27;20467;-78
2020/12/22 01:11:45;;;;;;;0.50;0.50;;;13.10;99.90;;;;;;2122804;27;20022;-80
2020/12/22 01:12:46;;;;;;;0.60;0.40;;;13.10;99.90;;;;;;2113703;28;20020;-80
2020/12/22 01:13:46;;;;;;;2.60;0.60;;;13.10;99.90;;;;;;2114158;28;20053;-77
2020/12/22 01:14:47;;;;;;;0.70;0.60;;;13.10;99.90;;;;;;2122527;27;20031;-78
2020/12/22 01:15:47;;;;;;;0.60;0.60;;;13.20;99.90;;;;;;2123320;27;20433;-79
2020/12/22 01:16:48;;;;;;;0.75;0.50;;;13.20;99.90;;;;;;2122976;27;20034;-78
2020/12/22 01:17:48;;;;;;;0.68;0.60;;;13.20;99.90;;;;;;2123093;27;20047;-79
2020/12/22 01:18:49;;;;;;;0.90;0.70;;;13.20;99.90;;;;;;2123165;27;20091;-78
2020/12/22 01:19:50;;;;;;;2.47;0.47;;;13.20;99.90;;;;;;2123172;27;20102;-77
2020/12/22 01:20:50;;;;;;;1.77;0.70;;;13.20;99.90;;;;;;2122791;27;20029;-79
2020/12/22 01:21:52;;;;;;;1.95;0.55;;;13.20;99.90;;;;;;2113289;28;20023;-77
2020/12/22 01:22:53;;;;;;;1.15;0.47;;;13.20;99.90;;;;;;2114100;28;20036;-79
2020/12/22 01:23:53;;;;;;;0.90;0.60;;;13.30;99.90;;;;;;2113892;28;20567;-78
2020/12/22 01:24:54;;;;;;;1.50;0.68;;;13.30;99.90;;;;;;2105466;28;20024;-80
2020/12/22 01:25:54;;;;;;;0.82;0.40;;;13.30;99.90;;;;;;2114049;28;20091;-79
2020/12/22 01:26:55;;;;;;;1.48;0.75;;;13.30;99.90;;;;;;2113296;28;20031;-80
2020/12/22 01:27:56;;;;;;;1.52;0.88;;;13.30;99.90;;;;;;2114015;28;20107;-80
2020/12/22 01:28:57;;;;;;;0.85;0.50;;;13.30;99.90;;;;;;2123105;27;20585;-79
2020/12/22 01:29:57;;;;;;;6.05;1.13;;;13.30;99.90;;;;;;2123082;27;20416;-77
2020/12/22 01:30:58;;;;;;;0.55;0.50;;;13.30;99.90;;;;;;2113809;28;20379;-78
2020/12/22 01:31:58;;;;;;;2.75;0.63;;;13.40;99.90;;;;;;2113563;28;20072;-78
2020/12/22 01:32:59;;;;;;;0.47;0.43;;;13.40;99.90;;;;;;2122933;27;20046;-79
2020/12/22 01:34:00;;;;;;;0.55;0.47;;;13.40;99.90;;;;;;2123077;27;20034;-78
2020/12/22 01:35:00;;;;;;;1.10;1.00;;;13.40;99.90;;;;;;2122679;27;20020;-79
2020/12/22 01:36:01;;;;;;;0.95;0.50;;;13.40;99.90;;;;;;2123194;27;20027;-77
2020/12/22 01:37:01;;;;;;;1.15;0.70;;;13.40;99.90;;;;;;2122163;27;20019;-80
2020/12/22 01:38:02;;;;;;;1.73;0.70;;;13.40;99.90;;;;;;2120730;27;20015;-77
2020/12/22 01:39:03;;;;;;;0.60;0.60;;;13.50;99.90;;;;;;2122462;27;20536;-78
2020/12/22 01:40:04;;;;;;;1.33;0.60;;;13.40;99.90;;;;;;2122811;27;20091;-81
2020/12/22 01:41:04;;;;;;;0.50;0.50;;;13.40;99.90;;;;;;2123053;27;20118;-77
2020/12/22 01:42:10;;;;;;;0.60;0.60;;;13.40;99.90;;;;;;2122776;27;20103;-77
2020/12/22 01:43:10;;;;;;;0.50;0.50;;;13.50;99.90;;;;;;2123044;27;20031;-79
2020/12/22 01:44:14;;;;;;;0.75;0.50;;;13.50;99.90;;;;;;2113500;28;20463;-77
2020/12/22 01:45:15;;;;;;;0.57;0.57;;;13.50;99.90;;;;;;2114275;27;20095;-78
2020/12/22 01:46:15;;;;;;;0.50;0.50;;;13.50;99.90;;;;;;2122890;27;20486;-78
2020/12/22 01:47:16;;;;;;;1.88;0.60;;;13.50;99.90;;;;;;2122912;27;20057;-81
2020/12/22 01:48:16;;;;;;;0.52;0.50;;;13.50;99.90;;;;;;2122580;27;20023;-77
2020/12/22 01:49:20;;;;;;;0.50;0.50;;;13.50;99.90;;;;;;2122684;27;20034;-76
2020/12/22 01:50:21;;;;;;;1.08;0.70;;;13.50;99.90;;;;;;2122328;27;20025;-78
2020/12/22 01:51:22;;;;;;;0.50;0.40;;;13.50;99.90;;;;;;2113495;28;20039;-76
2020/12/22 01:52:22;;;;;;;0.50;0.50;;;13.50;99.90;;;;;;2114019;28;20073;-76
2020/12/22 01:53:23;;;;;;;1.00;0.65;;;13.50;99.90;;;;;;2122932;27;20072;-77
2020/12/22 01:54:25;;;;;;;0.80;0.50;;;13.50;99.90;;;;;;2122846;27;20111;-76
2020/12/22 01:55:25;;;;;;;1.95;0.57;;;13.50;99.90;;;;;;2123025;27;20011;-78
2020/12/22 01:56:27;;;;;;;0.85;0.70;;;13.50;99.90;;;;;;2122468;27;20030;-77
2020/12/22 01:57:27;;;;;;;1.13;0.63;;;13.50;99.90;;;;;;2113661;28;20020;-79
2020/12/22 01:58:28;;;;;;;1.05;0.70;;;13.60;99.90;;;;;;2113383;28;20503;-76
2020/12/22 01:59:28;;;;;;;0.68;0.38;;;13.60;99.90;;;;;;2113109;28;20595;-78
2020/12/22 02:00:29;;;;;;;2.35;0.55;;;13.60;99.90;;;;;;2113477;28;20023;-80
2020/12/22 02:01:33;;;;;;;0.73;0.45;;;13.60;99.90;;;;;;2122348;27;20031;-79
2020/12/22 02:02:34;;;;;;;0.45;0.45;;;13.60;99.90;;;;;;2122207;27;20019;-78
2020/12/22 02:03:35;;;;;;;1.50;0.60;;;13.60;99.90;;;;;;2113624;28;20020;-78
2020/12/22 02:04:36;;;;;;;0.98;0.65;;;13.60;99.90;;;;;;2113598;28;20557;-80
2020/12/22 02:05:37;;;;;;;0.68;0.60;;;13.60;99.90;;;;;;2122879;27;20015;-76
2020/12/22 02:06:38;;;;;;;0.65;0.65;;;13.60;99.90;;;;;;2122636;27;20027;-76
2020/12/22 02:07:39;;;;;;;1.23;0.50;;;13.70;99.90;;;;;;2121857;27;20015;-78
2020/12/22 02:08:40;;;;;;;1.65;0.60;;;13.70;99.90;;;;;;2113184;28;20058;-79
2020/12/22 02:09:43;;;;;;;2.15;0.50;;;13.60;99.90;;;;;;2113589;28;20043;-77
2020/12/22 02:10:51;;;;;;;3.00;0.60;;;13.70;99.90;;;;;;2122745;27;20100;-75
2020/12/22 02:11:51;;;;;;;0.65;0.52;;;13.70;99.90;;;;;;2122191;27;20023;-76
2020/12/22 02:12:52;;;;;;;0.85;0.45;;;13.70;99.90;;;;;;2113459;28;20380;-78
2020/12/22 02:13:53;;;;;;;1.27;0.50;;;13.70;99.90;;;;;;2104811;28;20090;-79
2020/12/22 02:14:54;;;;;;;2.63;0.60;;;13.70;99.90;;;;;;2113416;28;20024;-76
2020/12/22 02:15:54;;;;;;;1.02;0.50;;;13.70;99.90;;;;;;2122076;27;20027;-75
2020/12/22 02:16:55;;;;;;;0.60;0.45;;;13.70;99.90;;;;;;2122021;27;20030;-77
2020/12/22 02:17:55;;;;;;;0.50;0.50;;;13.80;99.90;;;;;;2122573;27;20459;-76
2020/12/22 02:18:56;;;;;;;0.60;0.60;;;13.80;99.90;;;;;;2122577;27;20035;-78
2020/12/22 02:19:57;;;;;;;1.23;0.77;;;13.80;99.90;;;;;;2122108;27;20216;-77
2020/12/22 02:21:03;;;;;;;3.75;0.90;;;13.80;99.90;;;;;;2122603;27;20049;-77
2020/12/22 02:22:05;;;;;;;0.40;0.40;;;13.80;99.90;;;;;;2122154;27;20023;-77
2020/12/22 02:23:05;;;;;;;0.50;0.43;;;13.80;99.90;;;;;;2122322;27;20375;-79
2020/12/22 02:24:06;;;;;;;1.15;0.32;;;13.80;99.90;;;;;;2122477;27;20015;-78
2020/12/22 02:25:17;;;;;;;1.13;0.52;;;13.80;99.90;;;;;;2122383;27;20382;-77
2020/12/22 02:26:21;;;;;;;1.50;0.60;;;13.80;99.90;;;;;;2113399;28;20016;-76
2020/12/22 02:27:22;;;;;;;0.50;0.40;;;13.80;99.90;;;;;;2113631;27;20020;-76
2020/12/22 02:28:22;;;;;;;4.13;0.55;;;13.80;99.90;;;;;;2122504;27;20030;-77
2020/12/22 02:29:23;;;;;;;0.52;0.50;;;13.90;99.90;;;;;;2122049;27;20068;-76
2020/12/22 02:30:24;;;;;;;0.45;0.35;;;13.90;99.90;;;;;;2122604;27;20019;-76
2020/12/22 02:31:25;;;;;;;0.85;0.47;;;13.90;99.90;;;;;;2121921;27;20053;-78
2020/12/22 02:32:26;;;;;;;0.68;0.40;;;13.90;99.90;;;;;;2122634;27;20115;-78
2020/12/22 02:33:27;;;;;;;2.45;0.60;;;13.90;99.90;;;;;;2122227;27;20023;-78
2020/12/22 02:34:28;;;;;;;0.70;0.60;;;13.90;99.90;;;;;;2122470;27;20502;-77
2020/12/22 02:35:29;;;;;;;1.70;0.68;;;13.90;99.90;;;;;;2122651;27;20027;-78
2020/12/22 02:36:31;;;;;;;0.85;0.60;;;13.90;99.90;;;;;;2122384;27;20048;-78
2020/12/22 02:37:32;;;;;;;0.70;0.43;;;14.00;99.90;;;;;;2122035;27;20029;-77
2020/12/22 02:38:33;;;;;;;0.68;0.68;;;14.00;99.90;;;;;;2122251;27;20027;-76
2020/12/22 02:39:33;;;;;;;1.05;0.68;;;14.00;99.90;;;;;;2112916;28;20023;-77
2020/12/22 02:40:34;;;;;;;3.67;1.10;;;14.00;99.90;;;;;;2113330;28;20471;-78
2020/12/22 02:41:35;;;;;;;2.33;0.90;;;14.00;99.90;;;;;;2118721;27;20027;-78
2020/12/22 02:42:35;;;;;;;1.63;0.68;;;14.00;99.90;;;;;;2122253;27;20029;-77
2020/12/22 02:43:37;;;;;;;0.80;0.50;;;14.10;99.90;;;;;;2122327;27;20546;-79
2020/12/22 02:44:38;;;;;;;0.93;0.73;;;14.10;99.90;;;;;;2113275;28;20016;-76
2020/12/22 02:45:41;;;;;;;0.75;0.60;;;14.10;99.90;;;;;;2113522;27;20125;-77
2020/12/22 02:46:41;;;;;;;0.80;0.65;;;14.10;99.90;;;;;;2122421;27;20098;-76
2020/12/22 02:47:42;;;;;;;1.50;0.73;;;14.10;99.90;;;;;;2113185;28;20031;-79
2020/12/22 02:48:43;;;;;;;1.70;0.70;;;14.10;99.90;;;;;;2113109;28;20050;-76
2020/12/22 02:49:43;;;;;;;1.52;0.70;;;14.10;99.90;;;;;;2122331;27;20385;-77
2020/12/22 02:50:44;;;;;;;1.40;0.68;;;14.20;99.90;;;;;;2113330;28;20044;-78
2020/12/22 02:51:45;;;;;;;2.78;0.60;;;14.20;99.90;;;;;;2112926;28;20466;-78
2020/12/22 02:52:45;;;;;;;1.27;0.40;;;14.20;99.90;;;;;;2122451;27;20079;-76
2020/12/22 02:53:46;;;;;;;2.17;0.73;;;14.20;99.90;;;;;;2122396;27;20054;-78
2020/12/22 02:54:46;;;;;;;0.50;0.50;;;14.20;99.90;;;;;;2121980;27;20016;-79
2020/12/22 02:55:47;;;;;;;1.52;0.50;;;14.20;99.90;;;;;;2122424;27;20092;-76
2020/12/22 02:56:47;;;;;;;0.98;0.43;;;14.20;99.90;;;;;;2122325;27;20490;-77
2020/12/22 02:57:48;;;;;;;1.40;0.50;;;14.30;99.90;;;;;;2122254;27;20027;-74
2020/12/22 02:58:51;;;;;;;0.50;0.50;;;14.30;99.90;;;;;;2113224;28;20059;-76
2020/12/22 02:59:51;;;;;;;1.52;0.52;;;14.30;99.90;;;;;;2112928;28;20528;-76
2020/12/22 03:00:52;;;;;;;2.65;0.70;;;14.30;99.90;;;;;;2113140;28;20027;-79
2020/12/22 03:01:53;;;;;;;1.25;0.63;;;14.30;99.90;;;;;;2113597;28;20019;-75
2020/12/22 03:02:53;;;;;;;0.68;0.50;;;14.30;99.90;;;;;;2113787;28;20037;-76
2020/12/22 03:03:54;;;;;;;1.92;0.40;;;14.40;99.90;;;;;;2114069;28;20467;-77
2020/12/22 03:04:54;;;;;;;0.77;0.52;;;14.40;99.90;;;;;;2122958;27;20019;-76
2020/12/22 03:05:55;;;;;;;0.55;0.40;;;14.40;99.90;;;;;;2113667;28;20027;-80
2020/12/22 03:06:55;;;;;;;1.83;0.50;;;14.40;99.90;;;;;;2113775;28;20047;-76
2020/12/22 03:07:56;;;;;;;1.73;0.70;;;14.40;99.90;;;;;;2122974;27;20572;-78
2020/12/22 03:08:57;;;;;;;2.17;0.70;;;14.40;99.90;;;;;;2122941;27;20024;-79
2020/12/22 03:09:57;;;;;;;1.67;0.70;;;14.50;99.90;;;;;;2122905;27;20023;-78
2020/12/22 03:10:58;;;;;;;0.82;0.63;;;14.50;99.90;;;;;;2113738;28;20023;-79
2020/12/22 03:11:59;;;;;;;0.73;0.30;;;14.50;99.90;;;;;;2113221;28;20140;-76
2020/12/22 03:12:59;;;;;;;0.63;0.57;;;14.50;99.90;;;;;;2122997;27;20018;-76
2020/12/22 03:14:00;;;;;;;1.77;0.63;;;14.50;99.90;;;;;;2123061;27;20023;-78
2020/12/22 03:15:01;;;;;;;3.17;0.52;;;14.50;99.90;;;;;;2122925;27;20081;-78
2020/12/22 03:16:02;;;;;;;1.55;0.75;;;14.50;99.90;;;;;;2123078;27;20023;-76
2020/12/22 03:17:02;;;;;;;0.80;0.50;;;14.50;99.90;;;;;;2122574;27;20051;-78
2020/12/22 03:18:05;;;;;;;0.40;0.40;;;14.50;99.90;;;;;;2113696;28;20070;-75
2020/12/22 03:19:05;;;;;;;0.40;0.40;;;14.60;99.90;;;;;;2114053;28;20015;-78
2020/12/22 03:20:11;;;;;;;0.65;0.65;;;14.60;99.90;;;;;;2122853;27;20467;-77
2020/12/22 03:21:14;;;;;;;0.80;0.40;;;14.60;99.90;;;;;;2122579;27;20046;-76
2020/12/22 03:22:15;;;;;;;2.38;0.80;;;14.60;99.90;;;;;;2122217;27;20015;-78
2020/12/22 03:23:15;;;;;;;2.15;0.60;;;14.60;99.90;;;;;;2122402;27;20023;-77
2020/12/22 03:24:16;;;;;;;2.08;0.52;;;14.60;99.90;;;;;;2123056;27;20023;-76
2020/12/22 03:25:17;;;;;;;0.68;0.60;;;14.60;99.90;;;;;;2113630;28;20027;-78
2020/12/22 03:26:17;;;;;;;2.10;0.70;;;14.60;99.90;;;;;;2113923;28;20016;-79
2020/12/22 03:27:18;;;;;;;3.10;0.60;;;14.70;99.90;;;;;;2113416;28;20524;-79
2020/12/22 03:28:18;;;;;;;1.83;0.40;;;14.60;99.90;;;;;;2113816;28;20412;-76
2020/12/22 03:29:19;;;;;;;2.03;0.60;;;14.70;99.90;;;;;;2121936;27;20371;-77
2020/12/22 03:30:19;;;;;;;0.95;0.60;;;14.70;99.90;;;;;;2122838;27;20027;-80
2020/12/22 03:31:20;;;;;;;1.20;0.38;;;14.70;99.90;;;;;;2113383;28;20019;-78
2020/12/22 03:32:20;;;;;;;1.13;0.47;;;14.70;99.90;;;;;;2105193;28;20077;-77
2020/12/22 03:33:21;;;;;;;1.48;0.65;;;14.70;99.90;;;;;;2113596;28;20072;-78
2020/12/22 03:34:21;;;;;;;0.60;0.60;;;14.70;99.90;;;;;;2122908;27;20051;-79
2020/12/22 03:35:22;;;;;;;0.80;0.65;;;14.70;99.90;;;;;;2122766;27;20054;-78
2020/12/22 03:36:23;;;;;;;1.95;0.50;;;14.80;99.90;;;;;;2122961;27;20583;-76
2020/12/22 03:37:23;;;;;;;1.95;0.35;;;14.70;99.90;;;;;;2122571;27;20470;-78
2020/12/22 03:38:24;;;;;;;0.57;0.50;;;14.80;99.90;;;;;;2113835;28;20031;-76
2020/12/22 03:39:25;;;;;;;0.93;0.60;;;14.80;99.90;;;;;;2105081;28;20024;-76
2020/12/22 03:40:26;;;;;;;0.82;0.60;;;14.80;99.90;;;;;;2104985;28;20035;-80
2020/12/22 03:41:27;;;;;;;0.47;0.40;;;14.80;99.90;;;;;;2105118;28;20031;-76
2020/12/22 03:42:28;;;;;;;0.98;0.60;;;14.80;99.90;;;;;;2113669;28;20062;-77
2020/12/22 03:43:29;;;;;;;1.85;0.43;;;14.80;99.90;;;;;;2113781;28;20019;-79
2020/12/22 03:44:29;;;;;;;0.70;0.45;;;14.80;99.90;;;;;;2114537;28;20050;-77
2020/12/22 03:45:30;;;;;;;2.63;0.68;;;14.80;99.90;;;;;;2122867;27;20497;-75
2020/12/22 03:46:30;;;;;;;1.42;0.70;;;14.80;99.90;;;;;;2122342;27;20470;-79
2020/12/22 03:47:31;;;;;;;2.10;0.45;;;14.80;99.90;;;;;;2122794;27;20023;-78
2020/12/22 03:48:31;;;;;;;1.17;0.60;;;14.90;99.90;;;;;;2122729;27;20079;-77
2020/12/22 03:49:32;;;;;;;1.52;0.65;;;14.90;99.90;;;;;;2122476;28;20031;-78
2020/12/22 03:50:32;;;;;;;1.20;0.70;;;14.90;99.90;;;;;;2112911;28;20024;-77
2020/12/22 03:51:33;;;;;;;1.00;0.50;;;14.90;99.90;;;;;;2113049;28;20023;-80
2020/12/22 03:52:36;;;;;;;0.75;0.35;;;14.90;99.90;;;;;;2122332;28;20499;-78
2020/12/22 03:53:37;;;;;;;1.45;0.77;;;14.90;99.90;;;;;;2122873;28;20047;-77
2020/12/22 03:54:38;;;;;;;3.45;0.85;;;14.80;99.90;;;;;;2122840;28;20199;-75
2020/12/22 03:55:38;;;;;;;1.33;0.68;;;14.90;99.90;;;;;;2122694;28;20027;-79
2020/12/22 03:56:39;;;;;;;1.65;0.30;;;14.90;99.90;;;;;;2122624;28;20046;-77
2020/12/22 03:57:40;;;;;;;1.77;0.65;;;14.90;99.90;;;;;;2122505;28;20016;-74
2020/12/22 03:58:41;;;;;;;1.25;0.52;;;14.90;99.90;;;;;;2122782;28;20026;-76
2020/12/22 03:59:41;;;;;;;1.33;0.60;;;14.90;99.90;;;;;;2122522;28;20087;-75
2020/12/22 04:00:42;;;;;;;1.20;0.60;;;15.00;99.90;;;;;;2122595;28;20019;-79
2020/12/22 04:01:42;;;;;;;1.48;0.43;;;15.00;99.90;;;;;;2121962;28;20140;-81
2020/12/22 04:02:45;;;;;;;1.23;0.65;;;14.90;99.90;;;;;;2122137;28;20068;-77
2020/12/22 04:03:45;;;;;;;2.05;0.70;;;15.00;99.90;;;;;;2121672;28;20482;-78
2020/12/22 04:04:46;;;;;;;1.30;0.52;;;15.00;99.90;;;;;;2122125;28;20019;-78
2020/12/22 04:05:46;;;;;;;1.38;0.52;;;15.00;99.90;;;;;;2122368;28;20066;-76
2020/12/22 04:06:48;;;;;;;3.70;0.50;;;15.00;99.90;;;;;;2122294;28;20098;-77
2020/12/22 04:07:48;;;;;;;1.42;0.57;;;15.00;99.90;;;;;;2121977;28;20027;-80
2020/12/22 04:08:52;;;;;;;0.43;0.40;;;15.00;99.90;;;;;;2113060;28;20356;-79
2020/12/22 04:09:53;;;;;;;3.03;0.88;;;15.00;99.90;;;;;;2113507;28;20024;-77
2020/12/22 04:10:55;;;;;;;1.27;0.50;;;15.00;99.90;;;;;;2121523;27;20038;-79
2020/12/22 04:11:55;;;;;;;2.22;0.85;;;15.00;99.90;;;;;;2123536;27;20030;-79
2020/12/22 04:12:56;;;;;;;0.90;0.50;;;15.00;99.90;;;;;;2123751;27;20524;-76
2020/12/22 04:13:56;;;;;;;1.00;0.52;;;15.00;99.90;;;;;;2123822;27;20028;-78
2020/12/22 04:14:57;;;;;;;1.50;0.60;;;15.00;99.90;;;;;;2114368;28;20122;-76
2020/12/22 04:15:58;;;;;;;2.05;0.50;;;15.00;99.90;;;;;;2114563;28;20078;-79
2020/12/22 04:16:59;;;;;;;1.30;0.60;;;15.00;99.90;;;;;;2123566;27;20112;-77
2020/12/22 04:17:59;;;;;;;0.82;0.80;;;15.00;99.90;;;;;;2123715;27;20115;-78
2020/12/22 04:19:00;;;;;;;0.95;0.63;;;15.00;99.90;;;;;;2123747;27;20031;-80
2020/12/22 04:20:01;;;;;;;1.00;0.40;;;15.00;99.90;;;;;;2123515;27;20023;-78
2020/12/22 04:21:01;;;;;;;0.70;0.50;;;15.00;99.90;;;;;;2123348;27;20023;-80
2020/12/22 04:22:02;;;;;;;1.05;0.52;;;15.00;99.90;;;;;;2123350;27;20471;-76
2020/12/22 04:23:02;;;;;;;1.92;0.60;;;15.10;99.90;;;;;;2114635;28;20027;-79
2020/12/22 04:24:04;;;;;;;1.10;0.47;;;15.10;99.90;;;;;;2106007;28;20020;-76
2020/12/22 04:25:05;;;;;;;3.53;0.50;;;15.10;99.90;;;;;;2114793;27;20054;-75
2020/12/22 04:26:06;;;;;;;0.52;0.50;;;15.10;99.90;;;;;;2114396;28;20030;-77
2020/12/22 04:27:06;;;;;;;0.75;0.38;;;15.10;99.90;;;;;;2113968;28;20046;-76
2020/12/22 04:28:07;;;;;;;0.60;0.57;;;15.10;99.90;;;;;;2122978;27;20011;-76
2020/12/22 04:29:07;;;;;;;2.38;0.60;;;15.10;99.90;;;;;;2122985;27;20456;-76
2020/12/22 04:30:08;;;;;;;1.23;0.60;;;15.10;99.90;;;;;;2114521;28;20077;-77
2020/12/22 04:31:08;;;;;;;1.92;0.50;;;15.20;99.90;;;;;;2114521;28;20050;-79
2020/12/22 04:32:09;;;;;;;2.15;0.35;;;15.20;99.90;;;;;;2122887;27;20616;-78
2020/12/22 04:33:11;;;;;;;0.45;0.40;;;15.20;99.90;;;;;;2123464;27;20031;-78
2020/12/22 04:34:11;;;;;;;1.02;0.60;;;15.20;99.90;;;;;;2123555;27;20022;-76
2020/12/22 04:35:12;;;;;;;0.77;0.45;;;15.20;99.90;;;;;;2123687;27;20378;-79
2020/12/22 04:36:13;;;;;;;0.98;0.55;;;15.20;99.90;;;;;;2123457;27;20052;-78
2020/12/22 04:37:13;;;;;;;0.98;0.30;;;15.20;99.90;;;;;;2114383;28;20103;-78
2020/12/22 04:38:14;;;;;;;0.77;0.50;;;15.20;99.90;;;;;;2114275;28;20427;-77
2020/12/22 04:39:15;;;;;;;1.98;0.50;;;15.20;99.90;;;;;;2123161;27;20084;-78
2020/12/22 04:40:15;;;;;;;1.35;0.43;;;15.20;99.90;;;;;;2123076;27;20050;-77
2020/12/22 04:41:18;;;;;;;1.75;0.70;;;15.20;99.90;;;;;;2114095;28;20032;-76
2020/12/22 04:42:21;;;;;;;0.43;0.35;;;15.20;99.90;;;;;;2114047;27;20035;-77
2020/12/22 04:43:22;;;;;;;0.68;0.52;;;15.20;99.90;;;;;;2113817;28;20544;-80
2020/12/22 04:44:23;;;;;;;2.58;0.45;;;15.20;99.90;;;;;;2105624;28;20025;-77
2020/12/22 04:45:26;;;;;;;2.08;0.50;;;15.20;99.90;;;;;;2114266;28;20031;-78
2020/12/22 04:46:27;;;;;;;0.70;0.47;;;15.30;99.90;;;;;;2123467;27;20537;-76
2020/12/22 04:47:31;;;;;;;1.98;0.70;;;15.30;99.90;;;;;;2123312;27;20692;-77
2020/12/22 04:48:39;;;;;;;0.77;0.63;;;15.20;99.90;;;;;;2123424;27;20371;-78
2020/12/22 04:49:42;;;;;;;0.82;0.40;;;15.30;99.90;;;;;;2123034;27;20110;-76
2020/12/22 04:50:45;;;;;;;1.45;0.50;;;15.20;99.90;;;;;;2122706;27;20026;-77
2020/12/22 04:51:49;;;;;;;1.25;0.45;;;15.20;99.90;;;;;;2122849;27;20016;-79
2020/12/22 04:52:52;;;;;;;1.90;0.60;;;15.30;99.90;;;;;;2123105;27;20019;-77
2020/12/22 04:53:53;;;;;;;0.70;0.40;;;15.30;99.90;;;;;;2123389;27;20107;-78
2020/12/22 04:54:54;;;;;;;0.82;0.40;;;15.30;99.90;;;;;;2114157;28;20034;-76
2020/12/22 04:55:55;;;;;;;0.93;0.45;;;15.30;99.90;;;;;;2114003;28;20546;-77
2020/12/22 04:56:56;;;;;;;0.55;0.55;;;15.30;99.90;;;;;;2113920;28;20019;-79
2020/12/22 04:57:57;;;;;;;0.90;0.50;;;15.30;99.90;;;;;;2114179;28;20031;-76
2020/12/22 04:58:58;;;;;;;0.50;0.40;;;15.30;99.90;;;;;;2113939;28;20702;-78
2020/12/22 05:00:02;;;;;;;1.48;0.30;;;15.30;99.90;;;;;;2114114;28;20039;-78
2020/12/22 05:01:03;;;;;;;1.42;0.60;;;15.30;99.90;;;;;;2122739;27;20046;-78
2020/12/22 05:02:05;;;;;;;1.85;0.45;;;15.30;99.90;;;;;;2122851;27;20019;-78
2020/12/22 05:03:07;;;;;;;0.75;0.50;;;15.30;99.90;;;;;;2122928;27;20221;-79
2020/12/22 05:04:13;;;;;;;0.82;0.68;;;15.30;99.90;;;;;;2114115;28;20043;-77
2020/12/22 05:05:14;;;;;;;0.80;0.40;;;15.30;99.90;;;;;;2115084;27;20099;-77
2020/12/22 05:06:14;;;;;;;1.48;0.50;;;15.30;99.90;;;;;;2123463;27;20542;-79
2020/12/22 05:07:15;;;;;;;1.65;0.50;;;15.30;99.90;;;;;;2122935;27;20091;-76
2020/12/22 05:08:16;;;;;;;0.73;0.30;;;15.30;99.90;;;;;;2123402;27;20371;-77
2020/12/22 05:09:16;;;;;;;0.30;0.30;;;15.30;99.90;;;;;;2123105;27;20027;-76
2020/12/22 05:10:17;;;;;;;0.45;0.40;;;15.30;99.90;;;;;;2123227;27;20129;-78
2020/12/22 05:11:18;;;;;;;0.98;0.22;;;15.30;99.90;;;;;;2122913;27;20029;-78
2020/12/22 05:12:18;;;;;;;0.88;0.40;;;15.40;99.90;;;;;;2122674;27;20023;-77
2020/12/22 05:13:20;;;;;;;5.13;0.30;;;15.40;99.90;;;;;;2123006;27;20035;-77
2020/12/22 05:14:21;;;;;;;0.98;0.45;;;15.40;99.90;;;;;;2123280;27;20124;-78
2020/12/22 05:15:26;;;;;;;2.65;0.40;;;15.40;99.90;;;;;;2123018;27;20116;-78
2020/12/22 05:16:27;;;;;;;1.30;0.60;;;15.40;99.90;;;;;;2123116;27;20023;-78
2020/12/22 05:17:27;;;;;;;0.70;0.40;;;15.40;99.90;;;;;;2123072;27;20023;-79
2020/12/22 05:18:28;;;;;;;0.93;0.50;;;15.40;99.90;;;;;;2123076;27;20106;-79